Airfield :
LOGIN :

Register | Disclaimer

   EN    FR    IT 

 










Legend :    VFR   Marginal VFR   IFR   Intensive IFR   Very Intensive IFR
Visi :
Ceiling :
>= 8 km
>= 3000ft
5 to 8 km
1000 to 3000 ft
1500m to 5 km
500 to 1000 ft
800 to 1500m
200 to 500 ft
< 800m
< 200 ft
Symbols :   Thunderstorms  Fog  Heavy snow  Heavy precipitations  Wind > 20 kt
SIGMETs :     Misc.  Thunderstorms  Icing  Turbulence  Mountain Waves  Volcanic Ashes







- Airport Elevation : 1989 ft
- IATA code : KLV


LKKV - Karlovy Vary

CURRENT METAR :
  • 220900Z 25010KT 9999 FEW015 BKN020 06/03 Q1011

EXPIRED METARs :
  • 220830Z 24006KT 200V270 9999 SCT018 BKN021 06/04 Q1011
  • 220800Z 24005KT 200V270 9999 SCT013 BKN017 05/03 Q1011
  • 220730Z 25006KT 220V290 9999 SCT009 BKN019 05/03 Q1011
  • 220700Z 26006KT 220V290 9999 BKN011 OVC017 05/03 Q1011
  • 220630Z 25008KT 220V280 9999 BKN009 BKN017 05/03 Q1011

TAF TAF LKKV
Valid from the 22 at 06:00 until the 23 at 12:00 UTC


220500Z 2206/2312 25010KT 9999 BKN012
TEMPO 2206/2208 24008G18KT 5000 BR BKN007
BECMG 2208/2210 CAVOK
BECMG 2215/2218 VRB02KT
No reported NOTAMs for that airfield.



MET'MAP, your aeronautical weather chart ! - Copyright ORBIFLY December 2007 - Disclaimer

ORBIFLY MET'MAP TEAM :

Programming & Development : Alexandra Zaïnal
Concept & Development : Baudouin d'Aumeries
Co-Development & Prog : Marc-Olivier Méhu
Technical & hardware support : Manuel Goepfert

Contact : metmap@orbifly.com




SOURCES & CREDITS :

   NOAA